createdAt,value
2023-02-07T00:01:16.283Z,-3.50
2023-02-07T00:03:46.469Z,-3.40
2023-02-07T00:06:16.027Z,-3.40
2023-02-07T00:08:45.009Z,-3.40
2023-02-07T00:11:16.544Z,-3.40
2023-02-07T00:13:45.008Z,-3.40
2023-02-07T00:16:13.613Z,-3.30
2023-02-07T00:18:42.031Z,-3.30
2023-02-07T00:21:12.728Z,-3.30
2023-02-07T00:23:40.885Z,-3.30
2023-02-07T00:26:09.731Z,-3.20
2023-02-07T00:28:38.285Z,-3.20
2023-02-07T00:31:08.550Z,-3.20
2023-02-07T00:33:38.299Z,-3.10
2023-02-07T00:36:08.455Z,-3.10
2023-02-07T00:38:38.164Z,-3.10
2023-02-07T00:41:06.826Z,-3.10
2023-02-07T00:43:34.939Z,-3.10
2023-02-07T00:46:05.531Z,-3.00
2023-02-07T00:48:34.283Z,-3.00
2023-02-07T00:51:03.011Z,-3.00
2023-02-07T00:53:31.176Z,-3.00
2023-02-07T00:56:00.559Z,-2.90
2023-02-07T00:58:30.190Z,-2.90
2023-02-07T01:00:58.496Z,-2.90
2023-02-07T01:03:26.516Z,-2.90
2023-02-07T01:05:54.594Z,-2.90
2023-02-07T01:08:22.555Z,-2.90
2023-02-07T01:10:51.599Z,-2.80
2023-02-07T01:13:21.155Z,-2.80
2023-02-07T01:15:50.152Z,-2.80
2023-02-07T01:18:18.544Z,-2.80
2023-02-07T01:20:46.674Z,-2.80
2023-02-07T01:23:15.866Z,-2.80
2023-02-07T01:25:45.479Z,-2.70
2023-02-07T01:28:14.258Z,-2.70
2023-02-07T01:30:45.454Z,-2.70
2023-02-07T01:33:13.588Z,-2.70
2023-02-07T01:35:46.574Z,-2.70
2023-02-07T01:38:14.706Z,-2.70
2023-02-07T01:40:42.739Z,-2.70
2023-02-07T01:43:16.952Z,-2.70
2023-02-07T01:45:47.405Z,-2.60
2023-02-07T01:48:18.164Z,-2.60
2023-02-07T01:50:49.623Z,-2.60
2023-02-07T01:53:20.189Z,-2.60
2023-02-07T01:55:50.515Z,-2.60
2023-02-07T01:58:19.059Z,-2.60
2023-02-07T02:00:49.878Z,-2.60
2023-02-07T02:03:18.001Z,-2.60
2023-02-07T02:05:47.416Z,-2.50
2023-02-07T02:08:16.393Z,-2.50
2023-02-07T02:11:03.722Z,-2.50
2023-02-07T02:13:38.420Z,-2.50
2023-02-07T02:16:17.548Z,-2.50
2023-02-07T02:19:09.765Z,-2.50
2023-02-07T02:22:31.175Z,-2.50
2023-02-07T02:25:41.238Z,-2.50
2023-02-07T02:28:35.469Z,-2.50
2023-02-07T02:31:51.167Z,-2.40
2023-02-07T02:34:27.907Z,-2.40
2023-02-07T02:37:03.762Z,-2.40
2023-02-07T02:39:43.282Z,-2.40
2023-02-07T02:42:17.102Z,-2.40
2023-02-07T02:44:51.612Z,-2.40
2023-02-07T02:47:21.935Z,-2.30
2023-02-07T02:49:51.982Z,-2.30
2023-02-07T02:52:19.929Z,-2.30
2023-02-07T02:54:48.086Z,-2.30
2023-02-07T02:57:47.827Z,-2.30
2023-02-07T03:00:27.724Z,-2.30
2023-02-07T03:03:13.839Z,-2.30
2023-02-07T03:05:54.662Z,-2.30
2023-02-07T03:08:32.104Z,-2.30
2023-02-07T03:11:07.931Z,-2.30
2023-02-07T03:13:46.687Z,-2.30
2023-02-07T03:16:20.280Z,-2.20
2023-02-07T03:18:54.129Z,-2.10
2023-02-07T03:21:29.413Z,-2.10
2023-02-07T03:24:00.500Z,-2.10
2023-02-07T03:26:29.922Z,-2.10
2023-02-07T03:28:59.285Z,-2.00
2023-02-07T03:31:30.496Z,-2.00
2023-02-07T03:34:05.741Z,-2.00
2023-02-07T03:36:41.117Z,-2.00
2023-02-07T03:39:09.197Z,-2.00
2023-02-07T03:41:42.862Z,-2.00
2023-02-07T03:44:12.687Z,-1.90
2023-02-07T03:46:41.151Z,-1.90
2023-02-07T03:49:09.434Z,-1.90
2023-02-07T03:51:38.928Z,-1.90
2023-02-07T03:54:06.934Z,-1.80
2023-02-07T03:56:34.894Z,-1.80
2023-02-07T03:59:02.812Z,-1.80
2023-02-07T04:01:30.790Z,-1.80
2023-02-07T04:03:59.045Z,-1.80
2023-02-07T04:06:27.007Z,-1.80
2023-02-07T04:08:56.323Z,-1.70
2023-02-07T04:11:24.250Z,-1.70
2023-02-07T04:13:52.286Z,-1.80
2023-02-07T04:16:20.306Z,-1.80
2023-02-07T04:18:48.363Z,-1.70
2023-02-07T04:21:16.345Z,-1.70
2023-02-07T04:23:44.293Z,-1.70
2023-02-07T04:26:13.770Z,-1.70
2023-02-07T04:28:42.118Z,-1.70
2023-02-07T04:31:10.065Z,-1.70
2023-02-07T04:33:38.591Z,-1.70
2023-02-07T04:36:07.321Z,-1.70
2023-02-07T04:38:35.420Z,-1.70
2023-02-07T04:41:06.236Z,-1.60
2023-02-07T04:43:37.564Z,-1.60
2023-02-07T04:46:06.947Z,-1.60
2023-02-07T04:48:36.456Z,-1.60
2023-02-07T04:51:04.836Z,-1.60
2023-02-07T04:53:32.994Z,-1.60
2023-02-07T04:56:00.973Z,-1.60
2023-02-07T04:58:30.054Z,-1.60
2023-02-07T05:00:59.570Z,-1.60
2023-02-07T05:03:27.761Z,-1.60
2023-02-07T05:05:56.185Z,-1.60
2023-02-07T05:08:26.165Z,-1.60
2023-02-07T05:10:55.301Z,-1.60
2023-02-07T05:13:23.799Z,-1.50
2023-02-07T05:15:52.261Z,-1.60
2023-02-07T05:18:21.876Z,-1.50
2023-02-07T05:20:52.270Z,-1.50
2023-02-07T05:23:20.479Z,-1.50
2023-02-07T05:25:49.088Z,-1.50
2023-02-07T05:28:17.300Z,-1.50
2023-02-07T05:30:45.518Z,-1.50
2023-02-07T05:33:12.662Z,-1.50
2023-02-07T05:35:44.625Z,-1.50
2023-02-07T05:38:14.764Z,-1.50
2023-02-07T05:40:43.879Z,-1.50
2023-02-07T05:43:12.940Z,-1.50
2023-02-07T05:45:41.429Z,-1.40
2023-02-07T05:48:09.993Z,-1.40
2023-02-07T05:50:38.001Z,-1.40
2023-02-07T05:53:09.157Z,-1.40
2023-02-07T05:55:37.830Z,-1.40
2023-02-07T05:58:06.378Z,-1.40
2023-02-07T06:00:34.339Z,-1.30
2023-02-07T06:03:02.312Z,-1.30
2023-02-07T06:05:31.928Z,-1.30
2023-02-07T06:08:00.345Z,-1.30
2023-02-07T06:10:29.705Z,-1.30
2023-02-07T06:12:57.702Z,-1.30
2023-02-07T06:15:25.661Z,-1.30
2023-02-07T06:17:53.598Z,-1.30
2023-02-07T06:20:22.656Z,-1.30
2023-02-07T06:22:50.672Z,-1.30
2023-02-07T06:25:21.020Z,-1.30
2023-02-07T06:27:50.686Z,-1.20
2023-02-07T06:30:19.335Z,-1.20
2023-02-07T06:32:47.288Z,-1.20
2023-02-07T06:35:15.433Z,-1.10
2023-02-07T06:37:43.387Z,-1.10
2023-02-07T06:40:12.226Z,-1.10
2023-02-07T06:42:40.256Z,-1.10
2023-02-07T06:45:10.580Z,-1.00
2023-02-07T06:47:38.610Z,-1.00
2023-02-07T06:50:09.146Z,-1.00
2023-02-07T06:52:37.259Z,-1.00
2023-02-07T06:55:05.456Z,-1.00
2023-02-07T06:57:33.403Z,-1.00
2023-02-07T07:00:01.387Z,-0.90
2023-02-07T07:02:30.802Z,-0.90
2023-02-07T07:04:59.271Z,-0.90
2023-02-07T07:07:27.311Z,-0.90
2023-02-07T07:09:55.262Z,-0.80
2023-02-07T07:12:23.239Z,-0.80
2023-02-07T07:14:51.215Z,-0.60
2023-02-07T07:17:19.141Z,-0.60
2023-02-07T07:19:48.442Z,-0.70
2023-02-07T07:22:16.628Z,-0.60
2023-02-07T07:24:44.605Z,-0.60
2023-02-07T07:27:12.572Z,-0.60
2023-02-07T07:29:40.563Z,-0.50
2023-02-07T07:32:14.333Z,-0.50
2023-02-07T07:34:45.769Z,-0.50
2023-02-07T07:37:16.177Z,-0.40
2023-02-07T07:39:44.944Z,-0.40
2023-02-07T07:42:13.568Z,-0.30
2023-02-07T07:44:57.464Z,-0.30
2023-02-07T07:47:27.497Z,-0.20
2023-02-07T07:49:58.735Z,-0.20
2023-02-07T07:52:28.749Z,-0.20
2023-02-07T07:54:56.716Z,-0.20
2023-02-07T07:57:28.044Z,-0.10
2023-02-07T07:59:56.239Z,-0.10
2023-02-07T08:02:24.450Z,0.00
2023-02-07T08:04:53.009Z,0.00
2023-02-07T08:07:21.047Z,0.00
2023-02-07T08:09:50.349Z,0.10
2023-02-07T08:12:18.427Z,0.10
2023-02-07T08:14:46.445Z,0.20
2023-02-07T08:17:14.391Z,0.10
2023-02-07T08:19:42.411Z,0.20
2023-02-07T08:22:10.431Z,0.20
2023-02-07T08:24:38.472Z,0.30
2023-02-07T08:27:07.810Z,0.20
2023-02-07T08:29:35.761Z,0.20
2023-02-07T08:32:03.873Z,0.20
2023-02-07T08:34:37.344Z,0.30
2023-02-07T08:37:06.962Z,0.30
2023-02-07T08:39:35.687Z,0.30
2023-02-07T08:42:05.391Z,0.30
2023-02-07T08:44:34.784Z,0.40
2023-02-07T08:47:02.740Z,0.40
2023-02-07T08:49:31.052Z,0.40
2023-02-07T08:51:59.014Z,0.40
2023-02-07T08:54:27.036Z,0.50
2023-02-07T08:56:55.020Z,0.50
2023-02-07T08:59:23.081Z,0.50
2023-02-07T09:01:52.739Z,0.50
2023-02-07T09:04:20.891Z,0.50
2023-02-07T09:06:49.120Z,0.50
2023-02-07T09:09:17.135Z,0.50
2023-02-07T09:11:45.401Z,0.50
2023-02-07T09:14:13.633Z,0.50
2023-02-07T09:16:41.700Z,0.60
2023-02-07T09:19:11.010Z,0.50
2023-02-07T09:21:39.105Z,0.60
2023-02-07T09:24:07.452Z,0.60
2023-02-07T09:26:35.520Z,0.60
2023-02-07T09:29:03.598Z,0.50
2023-02-07T09:31:32.136Z,0.50
2023-02-07T09:34:00.217Z,0.50
2023-02-07T09:36:30.942Z,0.50
2023-02-07T09:39:00.630Z,0.60
2023-02-07T09:41:36.058Z,0.60
2023-02-07T09:44:14.000Z,0.60
2023-02-07T09:46:47.458Z,0.60
2023-02-07T09:49:24.870Z,0.70
2023-02-07T09:51:56.651Z,0.70
2023-02-07T09:54:27.761Z,0.70
2023-02-07T09:57:00.542Z,0.70
2023-02-07T09:59:47.084Z,0.80
2023-02-07T10:02:23.028Z,0.80
2023-02-07T10:04:53.748Z,0.90
2023-02-07T10:07:23.424Z,0.90
2023-02-07T10:09:51.441Z,0.90
2023-02-07T10:12:58.267Z,0.90
2023-02-07T10:15:44.521Z,1.00
2023-02-07T10:18:45.970Z,1.00
2023-02-07T10:21:25.505Z,1.10
2023-02-07T10:24:19.644Z,1.10
2023-02-07T10:26:53.633Z,1.10
2023-02-07T10:29:50.095Z,1.20
2023-02-07T10:32:22.159Z,1.30
2023-02-07T10:34:52.649Z,1.20
2023-02-07T10:37:22.944Z,1.30
2023-02-07T10:40:01.125Z,1.20
2023-02-07T10:42:31.378Z,1.30
2023-02-07T10:44:59.364Z,1.20
2023-02-07T10:47:27.409Z,1.30
2023-02-07T10:49:56.591Z,1.30
2023-02-07T10:52:30.236Z,1.30
2023-02-07T10:55:01.431Z,1.40
2023-02-07T10:57:31.083Z,1.40
2023-02-07T11:00:02.604Z,1.40
2023-02-07T11:02:48.907Z,1.50
2023-02-07T11:05:35.346Z,1.50
2023-02-07T11:08:05.971Z,1.50
2023-02-07T11:10:38.410Z,1.50
2023-02-07T11:13:13.954Z,1.50
2023-02-07T11:15:50.472Z,1.50
2023-02-07T11:18:38.036Z,1.50
2023-02-07T11:21:12.621Z,1.60
2023-02-07T11:23:44.808Z,1.60
2023-02-07T11:26:17.376Z,1.50
2023-02-07T11:28:45.557Z,1.60
2023-02-07T11:31:17.274Z,1.60
2023-02-07T11:33:45.671Z,1.60
2023-02-07T11:36:23.327Z,1.60
2023-02-07T11:38:55.227Z,1.60
2023-02-07T11:41:27.432Z,1.60
2023-02-07T11:44:01.197Z,1.60
2023-02-07T11:46:35.520Z,1.70
2023-02-07T11:49:06.691Z,1.70
2023-02-07T11:51:35.276Z,1.70
2023-02-07T11:54:05.830Z,1.90
2023-02-07T11:56:39.138Z,1.90
2023-02-07T11:59:12.380Z,2.00
2023-02-07T12:01:40.435Z,1.90
2023-02-07T12:04:12.178Z,2.00
2023-02-07T12:06:44.279Z,2.10
2023-02-07T12:09:30.551Z,2.10
2023-02-07T12:12:03.109Z,2.30
2023-02-07T12:14:36.859Z,2.30
2023-02-07T12:17:10.717Z,2.20
2023-02-07T12:19:49.689Z,2.00
2023-02-07T12:22:21.303Z,2.10
2023-02-07T12:24:54.911Z,2.00
2023-02-07T12:27:30.278Z,1.90
2023-02-07T12:30:03.239Z,2.00
2023-02-07T12:32:39.174Z,2.00
2023-02-07T12:35:16.702Z,2.00
2023-02-07T12:37:50.090Z,1.90
2023-02-07T12:40:27.575Z,1.90
2023-02-07T12:43:02.809Z,1.90
2023-02-07T12:45:47.012Z,1.90
2023-02-07T12:48:24.833Z,1.90
2023-02-07T12:51:03.065Z,1.90
2023-02-07T12:53:53.532Z,1.80
2023-02-07T12:56:37.753Z,1.80
2023-02-07T12:59:15.702Z,1.80
2023-02-07T13:01:47.892Z,1.80
2023-02-07T13:04:43.030Z,1.80
2023-02-07T13:07:24.822Z,1.80
2023-02-07T13:10:01.983Z,1.70
2023-02-07T13:12:34.884Z,1.80
2023-02-07T13:15:11.262Z,1.70
2023-02-07T13:17:50.261Z,1.90
2023-02-07T13:20:28.624Z,1.80
2023-02-07T13:23:00.386Z,1.70
2023-02-07T13:25:31.744Z,1.70
2023-02-07T13:28:06.122Z,1.70
2023-02-07T13:30:36.759Z,1.70
2023-02-07T13:33:19.244Z,1.70
2023-02-07T13:35:48.974Z,1.70
2023-02-07T13:38:21.175Z,1.60
2023-02-07T13:40:57.604Z,1.60
2023-02-07T13:43:33.762Z,1.50
2023-02-07T13:46:13.007Z,1.50
2023-02-07T13:48:47.929Z,1.50
2023-02-07T13:51:21.818Z,1.50
2023-02-07T13:53:56.933Z,1.50
2023-02-07T13:56:50.940Z,1.50
2023-02-07T13:59:42.659Z,1.50
2023-02-07T14:02:20.136Z,1.50
2023-02-07T14:04:51.271Z,1.40
2023-02-07T14:07:29.699Z,1.50
2023-02-07T14:09:58.994Z,1.40
2023-02-07T14:12:29.428Z,1.40
2023-02-07T14:15:17.815Z,1.40
2023-02-07T14:18:01.808Z,1.40
2023-02-07T14:20:50.480Z,1.40
2023-02-07T14:23:20.290Z,1.30
2023-02-07T14:25:50.149Z,1.30
2023-02-07T14:28:32.864Z,1.30
2023-02-07T14:31:03.617Z,1.30
2023-02-07T14:33:36.804Z,1.30
2023-02-07T14:36:25.990Z,1.30
2023-02-07T14:39:08.983Z,1.20
2023-02-07T14:41:40.677Z,1.30
2023-02-07T14:44:23.369Z,1.20
2023-02-07T14:46:55.765Z,1.10
2023-02-07T14:49:31.018Z,1.10
2023-02-07T14:52:01.343Z,1.10
2023-02-07T14:54:32.993Z,1.10
2023-02-07T14:57:07.686Z,1.10
2023-02-07T14:59:39.829Z,1.00
2023-02-07T15:02:30.481Z,1.00
2023-02-07T15:05:10.354Z,1.00
2023-02-07T15:07:38.357Z,0.90
2023-02-07T15:10:15.853Z,0.80
2023-02-07T15:12:45.057Z,0.90
2023-02-07T15:15:19.953Z,0.90
2023-02-07T15:17:49.548Z,0.90
2023-02-07T15:20:20.807Z,0.90
2023-02-07T15:22:50.715Z,0.90
2023-02-07T15:25:19.281Z,0.80
2023-02-07T15:28:01.195Z,0.80
2023-02-07T15:30:29.815Z,0.80
2023-02-07T15:32:58.212Z,0.80
2023-02-07T15:35:29.868Z,0.80
2023-02-07T15:38:17.154Z,0.80
2023-02-07T15:40:45.476Z,0.80
2023-02-07T15:43:31.909Z,0.70
2023-02-07T15:46:02.728Z,0.70
2023-02-07T15:48:31.318Z,0.80
2023-02-07T15:51:04.672Z,0.80
2023-02-07T15:53:33.181Z,0.80
2023-02-07T15:56:01.127Z,0.70
2023-02-07T15:58:36.703Z,0.70
2023-02-07T16:01:06.989Z,0.70
2023-02-07T16:03:39.757Z,0.70
2023-02-07T16:06:17.794Z,0.70
2023-02-07T16:08:46.473Z,0.70
2023-02-07T16:11:24.499Z,0.60
2023-02-07T16:13:55.114Z,0.60
2023-02-07T16:16:26.752Z,0.60
2023-02-07T16:19:06.067Z,0.60
2023-02-07T16:21:37.379Z,0.60
2023-02-07T16:24:08.500Z,0.60
2023-02-07T16:26:37.660Z,0.60
2023-02-07T16:29:06.709Z,0.50
2023-02-07T16:31:35.797Z,0.60
2023-02-07T16:34:03.768Z,0.60
2023-02-07T16:36:31.774Z,0.60
2023-02-07T16:39:01.097Z,0.50
2023-02-07T16:41:32.324Z,0.50
2023-02-07T16:44:01.344Z,0.50
2023-02-07T16:46:29.816Z,0.50
2023-02-07T16:48:57.799Z,0.50
2023-02-07T16:51:25.894Z,0.50
2023-02-07T16:53:53.805Z,0.50
2023-02-07T16:56:26.554Z,0.50
2023-02-07T16:58:54.482Z,0.40
2023-02-07T17:01:23.433Z,0.50
2023-02-07T17:03:51.666Z,0.50
2023-02-07T17:06:21.104Z,0.40
2023-02-07T17:08:51.871Z,0.50
2023-02-07T17:11:25.938Z,0.50
2023-02-07T17:13:56.591Z,0.40
2023-02-07T17:16:26.386Z,0.40
2023-02-07T17:18:55.136Z,0.40
2023-02-07T17:21:23.818Z,0.50
2023-02-07T17:23:52.138Z,0.40
2023-02-07T17:26:24.609Z,0.40
2023-02-07T17:28:53.224Z,0.50
2023-02-07T17:31:23.334Z,0.40
2023-02-07T17:33:52.274Z,0.40
2023-02-07T17:36:20.824Z,0.40
2023-02-07T17:38:48.833Z,0.40
2023-02-07T17:41:17.944Z,0.40
2023-02-07T17:43:45.877Z,0.40
2023-02-07T17:46:18.728Z,0.30
2023-02-07T17:48:49.537Z,0.30
2023-02-07T17:51:19.712Z,0.40
2023-02-07T17:53:48.102Z,0.30
2023-02-07T17:56:22.352Z,0.40
2023-02-07T17:58:50.791Z,0.50
2023-02-07T18:01:20.277Z,0.40
2023-02-07T18:03:51.367Z,0.40
2023-02-07T18:06:21.976Z,0.50
2023-02-07T18:08:50.322Z,0.50
2023-02-07T18:11:18.426Z,0.50
2023-02-07T18:13:48.624Z,0.50
2023-02-07T18:16:17.972Z,0.40
2023-02-07T18:18:46.123Z,0.40
2023-02-07T18:21:15.353Z,0.40
2023-02-07T18:23:43.832Z,0.40
2023-02-07T18:26:14.921Z,0.30
2023-02-07T18:28:43.365Z,0.30
2023-02-07T18:31:12.974Z,0.30
2023-02-07T18:33:41.510Z,0.30
2023-02-07T18:36:10.432Z,0.30
2023-02-07T18:38:39.935Z,0.30
2023-02-07T18:41:12.424Z,0.30
2023-02-07T18:43:41.480Z,0.30
2023-02-07T18:46:10.462Z,0.30
2023-02-07T18:48:39.251Z,0.30
2023-02-07T18:51:08.063Z,0.30
2023-02-07T18:53:36.191Z,0.30
2023-02-07T18:56:06.931Z,0.30
2023-02-07T18:58:35.597Z,0.30
2023-02-07T19:01:05.292Z,0.30
2023-02-07T19:03:33.601Z,0.30
2023-02-07T19:06:02.518Z,0.30
2023-02-07T19:08:30.865Z,0.30
2023-02-07T19:11:01.624Z,0.30
2023-02-07T19:13:31.650Z,0.20
2023-02-07T19:16:04.403Z,0.20
2023-02-07T19:18:33.108Z,0.20
2023-02-07T19:21:04.641Z,0.30
2023-02-07T19:23:32.959Z,0.20
2023-02-07T19:26:01.120Z,0.30
2023-02-07T19:28:30.709Z,0.20
2023-02-07T19:30:59.418Z,0.20
2023-02-07T19:33:29.526Z,0.20
2023-02-07T19:35:58.410Z,0.20
2023-02-07T19:38:26.673Z,0.20
2023-02-07T19:40:58.803Z,0.20
2023-02-07T19:43:26.846Z,0.20
2023-02-07T19:45:56.119Z,0.10
2023-02-07T19:48:24.563Z,0.20
2023-02-07T19:50:59.594Z,0.10
2023-02-07T19:53:28.470Z,0.10
2023-02-07T19:56:01.983Z,0.10
2023-02-07T19:58:31.030Z,0.10
2023-02-07T20:01:01.054Z,0.20
2023-02-07T20:03:29.874Z,0.10
2023-02-07T20:06:01.273Z,0.10
2023-02-07T20:08:34.308Z,0.20
2023-02-07T20:11:05.484Z,0.20
2023-02-07T20:13:35.377Z,0.10
2023-02-07T20:16:07.693Z,0.10
2023-02-07T20:18:36.134Z,0.10
2023-02-07T20:21:11.512Z,0.10
2023-02-07T20:23:41.823Z,0.10
2023-02-07T20:26:11.853Z,0.10
2023-02-07T20:28:41.896Z,0.10
2023-02-07T20:31:13.938Z,0.10
2023-02-07T20:33:43.007Z,0.10
2023-02-07T20:36:13.896Z,0.10
2023-02-07T20:38:42.278Z,0.10
2023-02-07T20:41:14.126Z,0.10
2023-02-07T20:43:43.430Z,0.10
2023-02-07T20:46:14.387Z,0.10
2023-02-07T20:48:42.851Z,0.00
2023-02-07T20:51:11.550Z,0.10
2023-02-07T20:53:40.795Z,0.10
2023-02-07T20:56:11.449Z,0.10
2023-02-07T20:58:39.863Z,0.10
2023-02-07T21:01:10.497Z,0.00
2023-02-07T21:03:40.594Z,0.10
2023-02-07T21:06:10.276Z,0.10
2023-02-07T21:08:39.641Z,0.10
2023-02-07T21:11:09.160Z,0.00
2023-02-07T21:13:37.759Z,0.00
2023-02-07T21:16:08.399Z,0.00
2023-02-07T21:18:37.624Z,0.10
2023-02-07T21:21:10.428Z,0.10
2023-02-07T21:23:38.736Z,0.10
2023-02-07T21:26:08.356Z,0.10
2023-02-07T21:28:37.301Z,0.10
2023-02-07T21:31:06.675Z,0.10
2023-02-07T21:33:34.976Z,0.10
2023-02-07T21:36:12.165Z,0.00
2023-02-07T21:38:41.117Z,0.00
2023-02-07T21:41:10.220Z,0.00
2023-02-07T21:43:40.246Z,0.00
2023-02-07T21:46:10.195Z,0.00
2023-02-07T21:48:39.223Z,0.00
2023-02-07T21:51:09.188Z,0.00
2023-02-07T21:53:39.104Z,0.00
2023-02-07T21:56:08.924Z,0.00
2023-02-07T21:58:37.227Z,0.00
2023-02-07T22:01:07.880Z,0.00
2023-02-07T22:03:36.256Z,0.00
2023-02-07T22:06:04.325Z,0.00
2023-02-07T22:08:32.321Z,0.10
2023-02-07T22:11:04.618Z,0.00
2023-02-07T22:13:32.853Z,-0.10
2023-02-07T22:16:01.244Z,0.00
2023-02-07T22:18:29.235Z,-0.10
2023-02-07T22:21:03.890Z,-0.10
2023-02-07T22:23:31.928Z,-0.10
2023-02-07T22:25:59.962Z,-0.10
2023-02-07T22:28:29.611Z,0.10
2023-02-07T22:30:57.762Z,0.20
2023-02-07T22:33:26.216Z,0.20
2023-02-07T22:35:54.136Z,0.10
2023-02-07T22:38:22.245Z,0.20
2023-02-07T22:40:50.150Z,0.30
2023-02-07T22:43:18.480Z,0.30
2023-02-07T22:45:48.789Z,0.20
2023-02-07T22:48:17.779Z,0.10
2023-02-07T22:50:45.706Z,0.00
2023-02-07T22:53:13.603Z,0.00
2023-02-07T22:55:41.527Z,0.00
2023-02-07T22:58:09.716Z,-0.10
2023-02-07T23:00:37.974Z,-0.10
2023-02-07T23:03:07.667Z,-0.10
2023-02-07T23:05:38.068Z,-0.10
2023-02-07T23:08:06.664Z,-0.10
2023-02-07T23:10:34.638Z,0.00
2023-02-07T23:13:02.749Z,0.00
2023-02-07T23:15:30.752Z,0.00
2023-02-07T23:17:58.798Z,0.00
2023-02-07T23:20:28.127Z,0.00
2023-02-07T23:22:56.154Z,0.10
2023-02-07T23:25:24.122Z,0.00
2023-02-07T23:27:52.017Z,0.00
2023-02-07T23:30:19.988Z,0.00
2023-02-07T23:32:47.902Z,0.00
2023-02-07T23:35:15.839Z,-0.10
2023-02-07T23:37:45.098Z,-0.10
2023-02-07T23:40:13.134Z,-0.10
2023-02-07T23:42:41.118Z,-0.10
2023-02-07T23:45:09.321Z,-0.10
2023-02-07T23:47:37.317Z,-0.20
2023-02-07T23:50:05.365Z,-0.10
2023-02-07T23:52:33.266Z,-0.10
2023-02-07T23:55:02.533Z,-0.20
2023-02-07T23:57:30.611Z,-0.10
2023-02-07T23:59:58.547Z,-0.10
